sensor_id;sensor_type;location;lat;lon;timestamp;temperature;humidity
11320;DHT22;5715;48.234;14.320;2022-09-09T00:04:35;12.30;99.90
11320;DHT22;5715;48.234;14.320;2022-09-09T00:07:37;12.30;99.90
11320;DHT22;5715;48.234;14.320;2022-09-09T00:10:39;12.30;99.90
11320;DHT22;5715;48.234;14.320;2022-09-09T00:13:37;12.30;99.90
11320;DHT22;5715;48.234;14.320;2022-09-09T00:16:35;12.30;99.90
11320;DHT22;5715;48.234;14.320;2022-09-09T00:19:33;12.30;99.90
11320;DHT22;5715;48.234;14.320;2022-09-09T00:22:50;12.20;99.90
11320;DHT22;5715;48.234;14.320;2022-09-09T00:25:52;12.10;99.90
11320;DHT22;5715;48.234;14.320;2022-09-09T00:29:04;12.00;99.90
11320;DHT22;5715;48.234;14.320;2022-09-09T00:32:13;12.00;99.90
11320;DHT22;5715;48.234;14.320;2022-09-09T00:35:26;12.00;99.90
11320;DHT22;5715;48.234;14.320;2022-09-09T00:38:23;11.90;99.90
11320;DHT22;5715;48.234;14.320;2022-09-09T00:41:29;11.80;99.90
11320;DHT22;5715;48.234;14.320;2022-09-09T00:44:32;11.80;99.90
11320;DHT22;5715;48.234;14.320;2022-09-09T01:00:24;11.80;99.90
11320;DHT22;5715;48.234;14.320;2022-09-09T01:03:41;11.80;99.90
11320;DHT22;5715;48.234;14.320;2022-09-09T01:06:40;11.80;99.90
11320;DHT22;5715;48.234;14.320;2022-09-09T01:09:57;11.80;99.90
11320;DHT22;5715;48.234;14.320;2022-09-09T01:12:49;11.80;99.90
11320;DHT22;5715;48.234;14.320;2022-09-09T01:15:40;11.80;99.90
11320;DHT22;5715;48.234;14.320;2022-09-09T01:18:39;11.80;99.90
11320;DHT22;5715;48.234;14.320;2022-09-09T01:21:56;11.70;99.90
11320;DHT22;5715;48.234;14.320;2022-09-09T01:28:27;11.70;99.90
11320;DHT22;5715;48.234;14.320;2022-09-09T01:31:20;11.60;99.90
11320;DHT22;5715;48.234;14.320;2022-09-09T01:34:14;11.60;99.90
11320;DHT22;5715;48.234;14.320;2022-09-09T01:39:55;11.40;99.90
11320;DHT22;5715;48.234;14.320;2022-09-09T01:42:42;11.40;99.90
11320;DHT22;5715;48.234;14.320;2022-09-09T01:45:31;11.40;99.90
11320;DHT22;5715;48.234;14.320;2022-09-09T01:48:19;11.40;99.90
11320;DHT22;5715;48.234;14.320;2022-09-09T01:51:09;11.40;99.90
11320;DHT22;5715;48.234;14.320;2022-09-09T01:53:57;11.40;99.90
11320;DHT22;5715;48.234;14.320;2022-09-09T02:00:07;11.30;99.90
11320;DHT22;5715;48.234;14.320;2022-09-09T02:03:08;11.30;99.90
11320;DHT22;5715;48.234;14.320;2022-09-09T02:06:36;11.40;99.90
11320;DHT22;5715;48.234;14.320;2022-09-09T02:09:29;11.40;99.90
11320;DHT22;5715;48.234;14.320;2022-09-09T02:12:18;11.40;99.90
11320;DHT22;5715;48.234;14.320;2022-09-09T02:15:19;11.40;99.90
11320;DHT22;5715;48.234;14.320;2022-09-09T02:18:14;11.30;99.90
11320;DHT22;5715;48.234;14.320;2022-09-09T02:21:11;11.20;99.90
11320;DHT22;5715;48.234;14.320;2022-09-09T02:24:03;11.20;99.90
11320;DHT22;5715;48.234;14.320;2022-09-09T02:26:57;11.20;99.90
11320;DHT22;5715;48.234;14.320;2022-09-09T02:29:49;11.10;99.90
11320;DHT22;5715;48.234;14.320;2022-09-09T02:32:40;11.10;99.90
11320;DHT22;5715;48.234;14.320;2022-09-09T02:35:32;11.10;99.90
11320;DHT22;5715;48.234;14.320;2022-09-09T02:38:28;11.10;99.90
11320;DHT22;5715;48.234;14.320;2022-09-09T02:41:25;11.10;99.90
11320;DHT22;5715;48.234;14.320;2022-09-09T02:44:19;11.10;99.90
11320;DHT22;5715;48.234;14.320;2022-09-09T02:50:26;11.00;99.90
11320;DHT22;5715;48.234;14.320;2022-09-09T02:53:43;10.90;99.90
11320;DHT22;5715;48.234;14.320;2022-09-09T02:56:38;10.90;99.90
11320;DHT22;5715;48.234;14.320;2022-09-09T02:59:29;10.90;99.90
11320;DHT22;5715;48.234;14.320;2022-09-09T03:02:17;10.90;99.90
11320;DHT22;5715;48.234;14.320;2022-09-09T03:05:06;10.90;99.90
11320;DHT22;5715;48.234;14.320;2022-09-09T03:07:54;10.90;99.90
11320;DHT22;5715;48.234;14.320;2022-09-09T03:10:41;10.90;99.90
11320;DHT22;5715;48.234;14.320;2022-09-09T03:13:29;10.80;99.90
11320;DHT22;5715;48.234;14.320;2022-09-09T03:16:17;10.80;99.90
11320;DHT22;5715;48.234;14.320;2022-09-09T03:19:04;10.80;99.90
11320;DHT22;5715;48.234;14.320;2022-09-09T03:21:53;10.80;99.90
11320;DHT22;5715;48.234;14.320;2022-09-09T03:24:41;10.80;99.90
11320;DHT22;5715;48.234;14.320;2022-09-09T03:27:29;10.80;99.90
11320;DHT22;5715;48.234;14.320;2022-09-09T03:30:17;10.80;99.90
11320;DHT22;5715;48.234;14.320;2022-09-09T03:33:04;10.80;99.90
11320;DHT22;5715;48.234;14.320;2022-09-09T03:35:52;10.90;99.90
11320;DHT22;5715;48.234;14.320;2022-09-09T03:38:40;10.90;99.90
11320;DHT22;5715;48.234;14.320;2022-09-09T03:41:28;10.90;99.90
11320;DHT22;5715;48.234;14.320;2022-09-09T03:44:16;11.00;99.90
11320;DHT22;5715;48.234;14.320;2022-09-09T03:47:04;11.10;99.90
11320;DHT22;5715;48.234;14.320;2022-09-09T03:49:51;11.10;99.90
11320;DHT22;5715;48.234;14.320;2022-09-09T03:52:40;11.10;99.90
11320;DHT22;5715;48.234;14.320;2022-09-09T03:55:29;11.20;99.90
11320;DHT22;5715;48.234;14.320;2022-09-09T03:58:17;11.20;99.90
11320;DHT22;5715;48.234;14.320;2022-09-09T04:01:12;11.20;99.90
11320;DHT22;5715;48.234;14.320;2022-09-09T04:04:00;11.30;99.90
11320;DHT22;5715;48.234;14.320;2022-09-09T04:06:49;11.40;99.90
11320;DHT22;5715;48.234;14.320;2022-09-09T04:09:37;11.40;99.90
11320;DHT22;5715;48.234;14.320;2022-09-09T04:12:25;11.40;99.90
11320;DHT22;5715;48.234;14.320;2022-09-09T04:15:12;11.30;99.90
11320;DHT22;5715;48.234;14.320;2022-09-09T04:18:00;11.30;99.90
11320;DHT22;5715;48.234;14.320;2022-09-09T04:20:48;11.30;99.90
11320;DHT22;5715;48.234;14.320;2022-09-09T04:23:37;11.30;99.90
11320;DHT22;5715;48.234;14.320;2022-09-09T04:26:25;11.20;99.90
11320;DHT22;5715;48.234;14.320;2022-09-09T04:29:13;11.10;99.90
11320;DHT22;5715;48.234;14.320;2022-09-09T04:32:00;11.10;99.90
11320;DHT22;5715;48.234;14.320;2022-09-09T04:34:48;11.10;99.90
11320;DHT22;5715;48.234;14.320;2022-09-09T04:37:36;11.10;99.90
11320;DHT22;5715;48.234;14.320;2022-09-09T04:40:23;11.20;99.90
11320;DHT22;5715;48.234;14.320;2022-09-09T04:43:12;11.20;99.90
11320;DHT22;5715;48.234;14.320;2022-09-09T04:46:00;11.30;99.90
11320;DHT22;5715;48.234;14.320;2022-09-09T04:48:49;11.40;99.90
11320;DHT22;5715;48.234;14.320;2022-09-09T04:51:37;11.50;99.90
11320;DHT22;5715;48.234;14.320;2022-09-09T04:54:24;11.60;99.90
11320;DHT22;5715;48.234;14.320;2022-09-09T04:57:12;11.70;99.90
11320;DHT22;5715;48.234;14.320;2022-09-09T05:00:06;11.80;99.90
11320;DHT22;5715;48.234;14.320;2022-09-09T05:02:54;11.90;99.90
11320;DHT22;5715;48.234;14.320;2022-09-09T05:05:41;12.00;99.90
11320;DHT22;5715;48.234;14.320;2022-09-09T05:08:29;12.10;99.90
11320;DHT22;5715;48.234;14.320;2022-09-09T05:11:21;12.10;99.90
11320;DHT22;5715;48.234;14.320;2022-09-09T05:14:17;12.20;99.90
11320;DHT22;5715;48.234;14.320;2022-09-09T05:17:04;12.40;99.90
11320;DHT22;5715;48.234;14.320;2022-09-09T05:19:52;12.50;99.90
11320;DHT22;5715;48.234;14.320;2022-09-09T05:22:39;12.70;99.90
11320;DHT22;5715;48.234;14.320;2022-09-09T05:25:27;12.90;99.90
11320;DHT22;5715;48.234;14.320;2022-09-09T05:28:14;13.00;99.90
11320;DHT22;5715;48.234;14.320;2022-09-09T05:31:10;13.20;99.90
11320;DHT22;5715;48.234;14.320;2022-09-09T05:34:00;13.30;99.90
11320;DHT22;5715;48.234;14.320;2022-09-09T05:36:47;13.30;99.90
11320;DHT22;5715;48.234;14.320;2022-09-09T05:39:35;13.40;99.90
11320;DHT22;5715;48.234;14.320;2022-09-09T05:42:24;13.30;99.90
11320;DHT22;5715;48.234;14.320;2022-09-09T05:45:11;13.30;99.90
11320;DHT22;5715;48.234;14.320;2022-09-09T05:47:59;13.30;99.90
11320;DHT22;5715;48.234;14.320;2022-09-09T05:50:53;13.40;99.90
11320;DHT22;5715;48.234;14.320;2022-09-09T05:53:42;13.50;99.90
11320;DHT22;5715;48.234;14.320;2022-09-09T05:56:29;13.90;99.90
11320;DHT22;5715;48.234;14.320;2022-09-09T05:59:17;14.10;99.90
11320;DHT22;5715;48.234;14.320;2022-09-09T06:02:05;14.30;99.90
11320;DHT22;5715;48.234;14.320;2022-09-09T06:04:53;14.40;99.90
11320;DHT22;5715;48.234;14.320;2022-09-09T06:07:46;14.50;99.90
11320;DHT22;5715;48.234;14.320;2022-09-09T06:10:34;14.60;99.90
11320;DHT22;5715;48.234;14.320;2022-09-09T06:13:21;14.70;99.90
11320;DHT22;5715;48.234;14.320;2022-09-09T06:16:11;14.70;99.90
11320;DHT22;5715;48.234;14.320;2022-09-09T06:19:01;14.60;99.90
11320;DHT22;5715;48.234;14.320;2022-09-09T06:21:52;14.60;99.90
11320;DHT22;5715;48.234;14.320;2022-09-09T06:24:39;14.70;99.90
11320;DHT22;5715;48.234;14.320;2022-09-09T06:27:27;14.90;99.90
11320;DHT22;5715;48.234;14.320;2022-09-09T06:30:15;15.00;99.90
11320;DHT22;5715;48.234;14.320;2022-09-09T06:33:04;15.00;99.90
11320;DHT22;5715;48.234;14.320;2022-09-09T06:35:52;15.00;99.90
11320;DHT22;5715;48.234;14.320;2022-09-09T06:38:42;15.00;99.90
11320;DHT22;5715;48.234;14.320;2022-09-09T06:41:31;15.00;99.90
11320;DHT22;5715;48.234;14.320;2022-09-09T06:44:20;15.00;99.90
11320;DHT22;5715;48.234;14.320;2022-09-09T06:47:07;15.00;99.90
11320;DHT22;5715;48.234;14.320;2022-09-09T06:49:54;15.00;99.90
11320;DHT22;5715;48.234;14.320;2022-09-09T06:52:46;15.00;99.90
11320;DHT22;5715;48.234;14.320;2022-09-09T06:55:34;15.10;99.90
11320;DHT22;5715;48.234;14.320;2022-09-09T06:58:22;15.10;99.90
11320;DHT22;5715;48.234;14.320;2022-09-09T07:01:11;15.00;99.90
11320;DHT22;5715;48.234;14.320;2022-09-09T07:04:01;15.10;99.90
11320;DHT22;5715;48.234;14.320;2022-09-09T07:06:51;15.10;99.90
11320;DHT22;5715;48.234;14.320;2022-09-09T07:09:39;15.20;99.90
11320;DHT22;5715;48.234;14.320;2022-09-09T07:12:27;15.30;99.90
11320;DHT22;5715;48.234;14.320;2022-09-09T07:15:15;15.40;99.90
11320;DHT22;5715;48.234;14.320;2022-09-09T07:18:02;15.50;99.90
11320;DHT22;5715;48.234;14.320;2022-09-09T07:20:54;15.60;99.90
11320;DHT22;5715;48.234;14.320;2022-09-09T07:23:43;15.60;99.90
11320;DHT22;5715;48.234;14.320;2022-09-09T07:26:31;15.80;99.90
11320;DHT22;5715;48.234;14.320;2022-09-09T07:29:18;15.90;99.90
11320;DHT22;5715;48.234;14.320;2022-09-09T07:32:07;16.10;99.90
11320;DHT22;5715;48.234;14.320;2022-09-09T07:34:55;16.20;99.90
11320;DHT22;5715;48.234;14.320;2022-09-09T07:37:43;16.30;99.90
11320;DHT22;5715;48.234;14.320;2022-09-09T07:40:37;16.30;99.90
11320;DHT22;5715;48.234;14.320;2022-09-09T07:43:26;16.50;99.90
11320;DHT22;5715;48.234;14.320;2022-09-09T07:46:15;16.70;99.90
11320;DHT22;5715;48.234;14.320;2022-09-09T07:49:04;16.90;99.90
11320;DHT22;5715;48.234;14.320;2022-09-09T07:51:53;16.80;99.90
11320;DHT22;5715;48.234;14.320;2022-09-09T07:54:40;16.90;99.90
11320;DHT22;5715;48.234;14.320;2022-09-09T07:57:29;16.90;99.90
11320;DHT22;5715;48.234;14.320;2022-09-09T08:00:20;16.90;99.90
11320;DHT22;5715;48.234;14.320;2022-09-09T08:03:09;16.80;99.90
11320;DHT22;5715;48.234;14.320;2022-09-09T08:06:01;16.80;99.90
11320;DHT22;5715;48.234;14.320;2022-09-09T08:08:54;16.80;99.90
11320;DHT22;5715;48.234;14.320;2022-09-09T08:11:42;16.80;99.90
11320;DHT22;5715;48.234;14.320;2022-09-09T08:14:30;16.90;99.90
11320;DHT22;5715;48.234;14.320;2022-09-09T08:17:18;16.90;99.90
11320;DHT22;5715;48.234;14.320;2022-09-09T08:20:05;16.90;99.90
11320;DHT22;5715;48.234;14.320;2022-09-09T08:22:55;17.00;99.90
11320;DHT22;5715;48.234;14.320;2022-09-09T08:25:42;16.90;99.90
11320;DHT22;5715;48.234;14.320;2022-09-09T08:28:32;16.80;99.90
11320;DHT22;5715;48.234;14.320;2022-09-09T08:31:22;16.80;99.90
11320;DHT22;5715;48.234;14.320;2022-09-09T08:34:11;16.90;99.90
11320;DHT22;5715;48.234;14.320;2022-09-09T08:36:59;16.90;99.90
11320;DHT22;5715;48.234;14.320;2022-09-09T08:39:46;16.90;99.90
11320;DHT22;5715;48.234;14.320;2022-09-09T08:42:49;16.90;99.90
11320;DHT22;5715;48.234;14.320;2022-09-09T08:45:54;16.90;99.90
11320;DHT22;5715;48.234;14.320;2022-09-09T08:56:14;17.00;99.90
11320;DHT22;5715;48.234;14.320;2022-09-09T08:59:12;17.00;99.90
11320;DHT22;5715;48.234;14.320;2022-09-09T09:02:34;16.80;99.90
11320;DHT22;5715;48.234;14.320;2022-09-09T09:10:07;16.60;99.90
11320;DHT22;5715;48.234;14.320;2022-09-09T09:12:22;16.60;99.90
11320;DHT22;5715;48.234;14.320;2022-09-09T09:15:19;16.70;99.90
11320;DHT22;5715;48.234;14.320;2022-09-09T09:18:13;16.60;99.90
11320;DHT22;5715;48.234;14.320;2022-09-09T09:21:16;16.50;99.90
11320;DHT22;5715;48.234;14.320;2022-09-09T09:30:59;16.60;99.90
11320;DHT22;5715;48.234;14.320;2022-09-09T09:33:54;16.70;99.90
11320;DHT22;5715;48.234;14.320;2022-09-09T09:39:48;16.80;99.90
11320;DHT22;5715;48.234;14.320;2022-09-09T09:42:53;16.80;99.90
11320;DHT22;5715;48.234;14.320;2022-09-09T09:45:46;16.90;99.90
11320;DHT22;5715;48.234;14.320;2022-09-09T09:49:03;16.90;99.90
11320;DHT22;5715;48.234;14.320;2022-09-09T09:51:52;16.80;99.90
11320;DHT22;5715;48.234;14.320;2022-09-09T09:54:41;16.90;99.90
11320;DHT22;5715;48.234;14.320;2022-09-09T09:57:31;16.90;99.90
11320;DHT22;5715;48.234;14.320;2022-09-09T10:00:22;17.00;99.90
11320;DHT22;5715;48.234;14.320;2022-09-09T10:03:24;17.10;99.90
11320;DHT22;5715;48.234;14.320;2022-09-09T10:06:34;17.00;99.90
11320;DHT22;5715;48.234;14.320;2022-09-09T10:09:28;17.10;99.90
11320;DHT22;5715;48.234;14.320;2022-09-09T10:19:01;17.20;99.90
11320;DHT22;5715;48.234;14.320;2022-09-09T10:32:37;17.40;99.90
11320;DHT22;5715;48.234;14.320;2022-09-09T10:38:41;17.40;99.90
11320;DHT22;5715;48.234;14.320;2022-09-09T10:45:20;17.60;99.90
11320;DHT22;5715;48.234;14.320;2022-09-09T10:58:31;17.60;99.90
11320;DHT22;5715;48.234;14.320;2022-09-09T11:02:28;17.60;99.90
11320;DHT22;5715;48.234;14.320;2022-09-09T11:05:31;17.60;99.90
11320;DHT22;5715;48.234;14.320;2022-09-09T11:08:26;17.50;99.90
11320;DHT22;5715;48.234;14.320;2022-09-09T11:11:27;17.40;99.90
11320;DHT22;5715;48.234;14.320;2022-09-09T11:17:33;17.50;99.90
11320;DHT22;5715;48.234;14.320;2022-09-09T11:20:45;17.50;99.90
11320;DHT22;5715;48.234;14.320;2022-09-09T11:23:59;17.60;99.90
11320;DHT22;5715;48.234;14.320;2022-09-09T11:27:22;17.60;99.90
11320;DHT22;5715;48.234;14.320;2022-09-09T11:37:23;17.90;99.90
11320;DHT22;5715;48.234;14.320;2022-09-09T11:40:25;18.20;99.90
11320;DHT22;5715;48.234;14.320;2022-09-09T11:43:18;18.40;99.90
11320;DHT22;5715;48.234;14.320;2022-09-09T11:46:15;18.60;99.90
11320;DHT22;5715;48.234;14.320;2022-09-09T11:49:06;18.50;99.90
11320;DHT22;5715;48.234;14.320;2022-09-09T11:55:25;18.60;99.90
11320;DHT22;5715;48.234;14.320;2022-09-09T11:58:22;18.60;99.90
11320;DHT22;5715;48.234;14.320;2022-09-09T12:01:14;18.70;99.90
11320;DHT22;5715;48.234;14.320;2022-09-09T12:10:32;18.50;99.90
11320;DHT22;5715;48.234;14.320;2022-09-09T12:13:23;18.30;99.90
11320;DHT22;5715;48.234;14.320;2022-09-09T12:16:37;18.30;99.90
11320;DHT22;5715;48.234;14.320;2022-09-09T12:19:25;18.40;99.90
11320;DHT22;5715;48.234;14.320;2022-09-09T12:26:28;18.10;99.90
11320;DHT22;5715;48.234;14.320;2022-09-09T12:29:43;18.20;99.90
11320;DHT22;5715;48.234;14.320;2022-09-09T12:32:39;18.30;99.90
11320;DHT22;5715;48.234;14.320;2022-09-09T12:35:28;18.40;99.90
11320;DHT22;5715;48.234;14.320;2022-09-09T12:38:27;18.50;99.90
11320;DHT22;5715;48.234;14.320;2022-09-09T12:41:28;18.70;99.90
11320;DHT22;5715;48.234;14.320;2022-09-09T12:44:15;18.80;99.90
11320;DHT22;5715;48.234;14.320;2022-09-09T12:47:03;18.90;99.90
11320;DHT22;5715;48.234;14.320;2022-09-09T12:49:51;19.10;99.90
11320;DHT22;5715;48.234;14.320;2022-09-09T12:52:39;19.00;99.90
11320;DHT22;5715;48.234;14.320;2022-09-09T12:55:37;19.00;99.90
11320;DHT22;5715;48.234;14.320;2022-09-09T12:58:26;19.00;99.90
11320;DHT22;5715;48.234;14.320;2022-09-09T13:01:31;18.90;99.90
11320;DHT22;5715;48.234;14.320;2022-09-09T13:04:22;18.90;99.90
11320;DHT22;5715;48.234;14.320;2022-09-09T13:07:11;18.80;99.90
11320;DHT22;5715;48.234;14.320;2022-09-09T13:09:59;18.80;99.90
11320;DHT22;5715;48.234;14.320;2022-09-09T13:12:46;18.70;99.90
11320;DHT22;5715;48.234;14.320;2022-09-09T13:15:34;18.70;99.90
11320;DHT22;5715;48.234;14.320;2022-09-09T13:18:28;18.70;99.90
11320;DHT22;5715;48.234;14.320;2022-09-09T13:21:36;18.60;99.90
11320;DHT22;5715;48.234;14.320;2022-09-09T13:27:28;18.30;99.90
11320;DHT22;5715;48.234;14.320;2022-09-09T13:30:31;18.20;99.90
11320;DHT22;5715;48.234;14.320;2022-09-09T13:33:23;18.10;99.90
11320;DHT22;5715;48.234;14.320;2022-09-09T13:36:27;18.10;99.90
11320;DHT22;5715;48.234;14.320;2022-09-09T13:39:21;18.10;99.90
11320;DHT22;5715;48.234;14.320;2022-09-09T13:42:24;18.10;99.90
11320;DHT22;5715;48.234;14.320;2022-09-09T13:45:19;18.00;99.90
11320;DHT22;5715;48.234;14.320;2022-09-09T13:48:09;18.00;99.90
11320;DHT22;5715;48.234;14.320;2022-09-09T13:51:02;18.10;99.90
11320;DHT22;5715;48.234;14.320;2022-09-09T13:53:54;18.20;99.90
11320;DHT22;5715;48.234;14.320;2022-09-09T13:56:42;18.20;99.90
11320;DHT22;5715;48.234;14.320;2022-09-09T13:59:30;18.20;99.90
11320;DHT22;5715;48.234;14.320;2022-09-09T14:02:38;18.10;99.90
11320;DHT22;5715;48.234;14.320;2022-09-09T14:05:26;18.00;99.90
11320;DHT22;5715;48.234;14.320;2022-09-09T14:08:26;17.90;99.90
11320;DHT22;5715;48.234;14.320;2022-09-09T14:11:15;17.80;99.90
11320;DHT22;5715;48.234;14.320;2022-09-09T14:14:03;17.70;99.90
11320;DHT22;5715;48.234;14.320;2022-09-09T14:16:52;17.60;99.90
11320;DHT22;5715;48.234;14.320;2022-09-09T14:19:39;17.60;99.90
11320;DHT22;5715;48.234;14.320;2022-09-09T14:22:27;17.60;99.90
11320;DHT22;5715;48.234;14.320;2022-09-09T14:25:15;17.50;99.90
11320;DHT22;5715;48.234;14.320;2022-09-09T14:28:03;17.50;99.90
11320;DHT22;5715;48.234;14.320;2022-09-09T14:30:50;17.40;99.90
11320;DHT22;5715;48.234;14.320;2022-09-09T14:33:38;17.50;99.90
11320;DHT22;5715;48.234;14.320;2022-09-09T14:36:25;17.40;99.90
11320;DHT22;5715;48.234;14.320;2022-09-09T14:39:13;17.40;99.90
11320;DHT22;5715;48.234;14.320;2022-09-09T14:42:00;17.40;99.90
11320;DHT22;5715;48.234;14.320;2022-09-09T14:44:49;17.40;99.90
11320;DHT22;5715;48.234;14.320;2022-09-09T14:47:36;17.50;99.90
11320;DHT22;5715;48.234;14.320;2022-09-09T14:50:25;17.50;99.90
11320;DHT22;5715;48.234;14.320;2022-09-09T14:53:12;17.50;99.90
11320;DHT22;5715;48.234;14.320;2022-09-09T14:56:06;17.50;99.90
11320;DHT22;5715;48.234;14.320;2022-09-09T14:59:09;17.50;99.90
11320;DHT22;5715;48.234;14.320;2022-09-09T15:01:56;17.50;99.90
11320;DHT22;5715;48.234;14.320;2022-09-09T15:04:44;17.50;99.90
11320;DHT22;5715;48.234;14.320;2022-09-09T15:07:31;17.40;99.90
11320;DHT22;5715;48.234;14.320;2022-09-09T15:10:19;17.40;99.90
11320;DHT22;5715;48.234;14.320;2022-09-09T15:13:06;17.40;99.90
11320;DHT22;5715;48.234;14.320;2022-09-09T15:15:54;17.40;99.90
11320;DHT22;5715;48.234;14.320;2022-09-09T15:18:42;17.40;99.90
11320;DHT22;5715;48.234;14.320;2022-09-09T15:21:34;17.40;99.90
11320;DHT22;5715;48.234;14.320;2022-09-09T15:24:23;17.30;99.90
11320;DHT22;5715;48.234;14.320;2022-09-09T15:27:10;17.30;99.90
11320;DHT22;5715;48.234;14.320;2022-09-09T15:29:58;17.20;99.90
11320;DHT22;5715;48.234;14.320;2022-09-09T15:32:45;17.20;99.90
11320;DHT22;5715;48.234;14.320;2022-09-09T15:35:33;17.10;99.90
11320;DHT22;5715;48.234;14.320;2022-09-09T15:38:20;17.10;99.90
11320;DHT22;5715;48.234;14.320;2022-09-09T15:41:07;17.00;99.90
11320;DHT22;5715;48.234;14.320;2022-09-09T15:43:56;17.00;99.90
11320;DHT22;5715;48.234;14.320;2022-09-09T15:46:46;17.00;99.90
11320;DHT22;5715;48.234;14.320;2022-09-09T15:49:36;17.00;99.90
11320;DHT22;5715;48.234;14.320;2022-09-09T15:52:24;17.00;99.90
11320;DHT22;5715;48.234;14.320;2022-09-09T15:55:11;16.90;99.90
11320;DHT22;5715;48.234;14.320;2022-09-09T15:57:59;16.90;99.90
11320;DHT22;5715;48.234;14.320;2022-09-09T16:00:48;16.90;99.90
11320;DHT22;5715;48.234;14.320;2022-09-09T16:03:36;16.90;99.90
11320;DHT22;5715;48.234;14.320;2022-09-09T16:06:31;16.80;99.90
11320;DHT22;5715;48.234;14.320;2022-09-09T16:09:20;16.80;99.90
11320;DHT22;5715;48.234;14.320;2022-09-09T16:12:08;16.80;99.90
11320;DHT22;5715;48.234;14.320;2022-09-09T16:15:00;16.80;99.90
11320;DHT22;5715;48.234;14.320;2022-09-09T16:17:48;16.80;99.90
11320;DHT22;5715;48.234;14.320;2022-09-09T16:20:36;16.80;99.90
11320;DHT22;5715;48.234;14.320;2022-09-09T16:23:23;16.80;99.90
11320;DHT22;5715;48.234;14.320;2022-09-09T16:26:14;16.80;99.90
11320;DHT22;5715;48.234;14.320;2022-09-09T16:29:03;16.80;99.90
11320;DHT22;5715;48.234;14.320;2022-09-09T16:31:51;16.70;99.90
11320;DHT22;5715;48.234;14.320;2022-09-09T16:34:38;16.70;99.90
11320;DHT22;5715;48.234;14.320;2022-09-09T16:37:27;16.70;99.90
11320;DHT22;5715;48.234;14.320;2022-09-09T16:40:16;16.70;99.90
11320;DHT22;5715;48.234;14.320;2022-09-09T16:43:04;16.70;99.90
11320;DHT22;5715;48.234;14.320;2022-09-09T16:45:53;16.60;99.90
11320;DHT22;5715;48.234;14.320;2022-09-09T16:48:41;16.60;99.90
11320;DHT22;5715;48.234;14.320;2022-09-09T16:51:36;16.60;99.90
11320;DHT22;5715;48.234;14.320;2022-09-09T16:54:25;16.50;99.90
11320;DHT22;5715;48.234;14.320;2022-09-09T16:57:14;16.50;99.90
11320;DHT22;5715;48.234;14.320;2022-09-09T17:00:03;16.50;99.90
11320;DHT22;5715;48.234;14.320;2022-09-09T17:02:52;16.50;99.90
11320;DHT22;5715;48.234;14.320;2022-09-09T17:05:40;16.50;99.90
11320;DHT22;5715;48.234;14.320;2022-09-09T17:08:31;16.50;99.90
11320;DHT22;5715;48.234;14.320;2022-09-09T17:11:20;16.50;99.90
11320;DHT22;5715;48.234;14.320;2022-09-09T17:14:13;16.50;99.90
11320;DHT22;5715;48.234;14.320;2022-09-09T17:17:03;16.50;99.90
11320;DHT22;5715;48.234;14.320;2022-09-09T17:20:11;16.50;99.90
11320;DHT22;5715;48.234;14.320;2022-09-09T17:22:59;16.50;99.90
11320;DHT22;5715;48.234;14.320;2022-09-09T17:25:56;16.50;99.90
11320;DHT22;5715;48.234;14.320;2022-09-09T17:28:45;16.50;99.90
11320;DHT22;5715;48.234;14.320;2022-09-09T17:31:33;16.40;99.90
11320;DHT22;5715;48.234;14.320;2022-09-09T17:34:21;16.40;99.90
11320;DHT22;5715;48.234;14.320;2022-09-09T17:37:09;16.30;99.90
11320;DHT22;5715;48.234;14.320;2022-09-09T17:39:57;16.20;99.90
11320;DHT22;5715;48.234;14.320;2022-09-09T17:42:45;16.20;99.90
11320;DHT22;5715;48.234;14.320;2022-09-09T17:45:33;16.20;99.90
11320;DHT22;5715;48.234;14.320;2022-09-09T17:48:20;16.10;99.90
11320;DHT22;5715;48.234;14.320;2022-09-09T17:51:11;16.10;99.90
11320;DHT22;5715;48.234;14.320;2022-09-09T17:54:03;16.10;99.90
11320;DHT22;5715;48.234;14.320;2022-09-09T17:56:56;16.00;99.90
11320;DHT22;5715;48.234;14.320;2022-09-09T17:59:45;16.00;99.90
11320;DHT22;5715;48.234;14.320;2022-09-09T18:02:32;16.00;99.90
11320;DHT22;5715;48.234;14.320;2022-09-09T18:05:20;15.90;99.90
11320;DHT22;5715;48.234;14.320;2022-09-09T18:08:07;15.90;99.90
11320;DHT22;5715;48.234;14.320;2022-09-09T18:10:55;15.90;99.90
11320;DHT22;5715;48.234;14.320;2022-09-09T18:13:43;15.80;99.90
11320;DHT22;5715;48.234;14.320;2022-09-09T18:16:35;15.80;99.90
11320;DHT22;5715;48.234;14.320;2022-09-09T18:19:26;15.80;99.90
11320;DHT22;5715;48.234;14.320;2022-09-09T18:22:16;15.80;99.90
11320;DHT22;5715;48.234;14.320;2022-09-09T18:25:05;15.70;99.90
11320;DHT22;5715;48.234;14.320;2022-09-09T18:27:54;15.70;99.90
11320;DHT22;5715;48.234;14.320;2022-09-09T18:30:43;15.70;99.90
11320;DHT22;5715;48.234;14.320;2022-09-09T18:41:55;15.60;99.90
11320;DHT22;5715;48.234;14.320;2022-09-09T18:44:46;15.60;99.90
11320;DHT22;5715;48.234;14.320;2022-09-09T18:47:34;15.50;99.90
11320;DHT22;5715;48.234;14.320;2022-09-09T18:50:23;15.50;99.90
11320;DHT22;5715;48.234;14.320;2022-09-09T18:53:11;15.50;99.90
11320;DHT22;5715;48.234;14.320;2022-09-09T18:56:09;15.50;99.90
11320;DHT22;5715;48.234;14.320;2022-09-09T18:59:01;15.50;99.90
11320;DHT22;5715;48.234;14.320;2022-09-09T19:01:51;15.50;99.90
11320;DHT22;5715;48.234;14.320;2022-09-09T19:04:40;15.50;99.90
11320;DHT22;5715;48.234;14.320;2022-09-09T19:07:27;15.40;99.90
11320;DHT22;5715;48.234;14.320;2022-09-09T19:10:15;15.40;99.90
11320;DHT22;5715;48.234;14.320;2022-09-09T19:13:03;15.40;99.90
11320;DHT22;5715;48.234;14.320;2022-09-09T19:15:51;15.40;99.90
11320;DHT22;5715;48.234;14.320;2022-09-09T19:18:39;15.30;99.90
11320;DHT22;5715;48.234;14.320;2022-09-09T19:21:30;15.30;99.90
11320;DHT22;5715;48.234;14.320;2022-09-09T19:24:21;15.30;99.90
11320;DHT22;5715;48.234;14.320;2022-09-09T19:27:10;15.30;99.90
11320;DHT22;5715;48.234;14.320;2022-09-09T19:29:58;15.30;99.90
11320;DHT22;5715;48.234;14.320;2022-09-09T19:32:45;15.30;99.90
11320;DHT22;5715;48.234;14.320;2022-09-09T19:35:39;15.30;99.90
11320;DHT22;5715;48.234;14.320;2022-09-09T19:38:28;15.30;99.90
11320;DHT22;5715;48.234;14.320;2022-09-09T19:41:20;15.20;99.90
11320;DHT22;5715;48.234;14.320;2022-09-09T19:44:15;15.20;99.90
11320;DHT22;5715;48.234;14.320;2022-09-09T19:47:03;15.30;99.90
11320;DHT22;5715;48.234;14.320;2022-09-09T19:49:51;15.20;99.90
11320;DHT22;5715;48.234;14.320;2022-09-09T19:52:38;15.30;99.90
11320;DHT22;5715;48.234;14.320;2022-09-09T19:55:26;15.30;99.90
11320;DHT22;5715;48.234;14.320;2022-09-09T19:58:15;15.30;99.90
11320;DHT22;5715;48.234;14.320;2022-09-09T20:01:14;15.30;99.90
11320;DHT22;5715;48.234;14.320;2022-09-09T20:04:04;15.30;99.90
11320;DHT22;5715;48.234;14.320;2022-09-09T20:06:52;15.20;99.90